METAR Formatted Surface Weather Observation
Issued by NWS Corpus Christi, TX

Home | Current Version | Previous Version | Text Only | Print | Product List | Glossary On
Versions: 1 2 3 4 5 6 7 8 9 10 11 12 13 14 15 16 17 18 19 20 21 22 23 24 25 26 27 28 29 30 31 32 33 34
000
SAUS44 KCRP 230355
MTRVCT
METAR KVCT 230351Z AUTO 09005KT 8SM CLR 24/23 A2991 RMK AO2 SLP125
T02390228 TSNO $



USA.gov is the U.S. government's official web portal to all federal, state and local government web resources and services.